createdAt,value
2022-12-04T00:01:18.217Z,21.60
2022-12-04T00:03:46.080Z,21.60
2022-12-04T00:06:15.588Z,21.60
2022-12-04T00:08:43.863Z,21.60
2022-12-04T00:11:13.459Z,21.60
2022-12-04T00:13:42.198Z,21.60
2022-12-04T00:16:12.519Z,21.60
2022-12-04T00:18:41.819Z,21.70
2022-12-04T00:21:11.995Z,21.60
2022-12-04T00:23:40.527Z,21.70
2022-12-04T00:26:10.403Z,21.60
2022-12-04T00:28:38.620Z,21.60
2022-12-04T00:31:07.818Z,21.60
2022-12-04T00:33:35.796Z,21.60
2022-12-04T00:36:09.775Z,21.60
2022-12-04T00:38:38.133Z,21.60
2022-12-04T00:41:08.598Z,21.60
2022-12-04T00:43:36.583Z,21.60
2022-12-04T00:46:04.448Z,21.60
2022-12-04T00:48:32.276Z,21.60
2022-12-04T00:51:04.583Z,21.60
2022-12-04T00:53:32.321Z,21.60
2022-12-04T00:56:00.311Z,21.60
2022-12-04T00:58:28.038Z,21.60
2022-12-04T01:01:02.943Z,21.60
2022-12-04T01:03:30.975Z,21.60
2022-12-04T01:05:58.853Z,21.60
2022-12-04T01:08:28.061Z,21.60
2022-12-04T01:10:55.978Z,21.60
2022-12-04T01:13:24.566Z,21.60
2022-12-04T01:15:52.533Z,21.70
2022-12-04T01:18:20.333Z,21.60
2022-12-04T01:20:49.834Z,21.60
2022-12-04T01:23:18.293Z,21.60
2022-12-04T01:25:53.234Z,21.70
2022-12-04T01:28:20.979Z,21.60
2022-12-04T01:30:59.048Z,21.60
2022-12-04T01:33:26.874Z,21.70
2022-12-04T01:35:55.256Z,21.60
2022-12-04T01:38:23.088Z,21.60
2022-12-04T01:40:52.447Z,21.60
2022-12-04T01:43:21.432Z,21.60
2022-12-04T01:45:50.575Z,21.60
2022-12-04T01:48:24.260Z,21.60
2022-12-04T01:50:54.949Z,21.70
2022-12-04T01:53:22.923Z,21.60
2022-12-04T01:55:52.279Z,21.60
2022-12-04T01:58:24.716Z,21.60
2022-12-04T02:00:58.349Z,21.60
2022-12-04T02:03:26.597Z,21.60
2022-12-04T02:05:54.337Z,21.60
2022-12-04T02:08:22.396Z,21.60
2022-12-04T02:11:02.364Z,21.60
2022-12-04T02:13:37.189Z,21.60
2022-12-04T02:16:15.274Z,21.60
2022-12-04T02:18:58.076Z,21.60
2022-12-04T02:21:32.630Z,21.60
2022-12-04T02:24:22.324Z,21.60
2022-12-04T02:26:57.049Z,21.60
2022-12-04T02:29:35.137Z,21.70
2022-12-04T02:32:12.716Z,21.70
2022-12-04T02:34:46.109Z,21.60
2022-12-04T02:37:18.392Z,21.60
2022-12-04T02:39:55.692Z,21.60
2022-12-04T02:42:31.777Z,21.60
2022-12-04T02:45:04.825Z,21.60
2022-12-04T02:47:34.228Z,21.60
2022-12-04T02:50:04.575Z,21.60
2022-12-04T02:52:36.016Z,21.60
2022-12-04T02:55:08.745Z,21.60
2022-12-04T02:57:42.232Z,21.70
2022-12-04T03:00:12.492Z,21.60
2022-12-04T03:02:47.150Z,21.70
2022-12-04T03:05:18.607Z,21.60
2022-12-04T03:07:50.982Z,21.60
2022-12-04T03:10:22.026Z,21.60
2022-12-04T03:12:54.324Z,21.60
2022-12-04T03:15:27.640Z,21.60
2022-12-04T03:18:01.197Z,21.60
2022-12-04T03:20:32.918Z,21.60
2022-12-04T03:23:07.963Z,21.60
2022-12-04T03:25:42.528Z,21.60
2022-12-04T03:28:17.582Z,21.60
2022-12-04T03:30:55.343Z,21.60
2022-12-04T03:33:30.415Z,21.60
2022-12-04T03:36:03.474Z,21.70
2022-12-04T03:38:37.767Z,21.60
2022-12-04T03:41:09.288Z,21.60
2022-12-04T03:43:40.807Z,21.60
2022-12-04T03:46:15.599Z,21.70
2022-12-04T03:48:47.767Z,21.60
2022-12-04T03:51:21.820Z,21.60
2022-12-04T03:53:55.745Z,21.60
2022-12-04T03:56:27.298Z,21.60
2022-12-04T03:59:12.696Z,21.60
2022-12-04T04:01:45.877Z,21.60
2022-12-04T04:04:28.368Z,21.60
2022-12-04T04:07:03.776Z,21.60
2022-12-04T04:09:37.896Z,21.60
2022-12-04T04:12:09.522Z,21.60
2022-12-04T04:15:00.575Z,21.60
2022-12-04T04:17:52.020Z,21.60
2022-12-04T04:20:41.745Z,21.60
2022-12-04T04:23:30.085Z,21.60
2022-12-04T04:26:00.813Z,21.60
2022-12-04T04:28:30.984Z,21.60
2022-12-04T04:31:06.949Z,21.60
2022-12-04T04:33:44.554Z,21.60
2022-12-04T04:36:17.017Z,21.60
2022-12-04T04:38:49.253Z,21.60
2022-12-04T04:41:21.711Z,21.60
2022-12-04T04:43:55.609Z,21.70
2022-12-04T04:46:29.024Z,21.60
2022-12-04T04:49:02.381Z,21.60
2022-12-04T04:51:32.242Z,21.60
2022-12-04T04:54:04.379Z,21.60
2022-12-04T04:56:32.351Z,21.60
2022-12-04T04:59:00.051Z,21.60
2022-12-04T05:01:29.480Z,21.60
2022-12-04T05:03:58.569Z,21.60
2022-12-04T05:06:26.328Z,21.60
2022-12-04T05:08:54.054Z,21.60
2022-12-04T05:11:21.804Z,21.60
2022-12-04T05:13:49.625Z,21.60
2022-12-04T05:16:17.935Z,21.60
2022-12-04T05:19:06.432Z,21.70
2022-12-04T05:21:34.748Z,21.60
2022-12-04T05:24:02.814Z,21.60
2022-12-04T05:26:30.668Z,21.60
2022-12-04T05:28:58.379Z,21.60
2022-12-04T05:31:26.160Z,21.60
2022-12-04T05:33:53.909Z,21.60
2022-12-04T05:36:21.645Z,21.60
2022-12-04T05:38:50.684Z,21.60
2022-12-04T05:41:18.493Z,21.60
2022-12-04T05:43:46.221Z,21.60
2022-12-04T05:46:13.999Z,21.60
2022-12-04T05:48:41.780Z,21.60
2022-12-04T05:51:11.103Z,21.60
2022-12-04T05:53:39.348Z,21.60
2022-12-04T05:56:09.418Z,21.60
2022-12-04T05:58:37.944Z,21.60
2022-12-04T06:01:13.306Z,21.60
2022-12-04T06:03:41.074Z,21.60
2022-12-04T06:06:19.260Z,21.60
2022-12-04T06:08:49.536Z,21.60
2022-12-04T06:11:20.932Z,21.60
2022-12-04T06:13:48.773Z,21.60
2022-12-04T06:16:17.921Z,21.60
2022-12-04T06:18:46.296Z,21.60
2022-12-04T06:21:14.037Z,21.60
2022-12-04T06:23:41.775Z,21.60
2022-12-04T06:26:09.849Z,21.60
2022-12-04T06:28:39.061Z,21.60
2022-12-04T06:31:09.070Z,21.60
2022-12-04T06:33:37.420Z,21.60
2022-12-04T06:36:07.753Z,21.60
2022-12-04T06:38:36.026Z,21.60
2022-12-04T06:41:05.546Z,21.60
2022-12-04T06:43:33.562Z,21.60
2022-12-04T06:46:03.690Z,21.60
2022-12-04T06:48:31.582Z,21.60
2022-12-04T06:51:00.279Z,21.60
2022-12-04T06:53:30.238Z,21.60
2022-12-04T06:55:59.508Z,21.60
2022-12-04T06:58:28.048Z,21.60
2022-12-04T07:00:56.718Z,21.60
2022-12-04T07:03:26.865Z,21.60
2022-12-04T07:05:54.587Z,21.60
2022-12-04T07:08:22.741Z,21.60
2022-12-04T07:10:54.429Z,21.60
2022-12-04T07:13:26.673Z,21.60
2022-12-04T07:15:54.376Z,21.60
2022-12-04T07:18:22.109Z,21.60
2022-12-04T07:20:51.160Z,21.60
2022-12-04T07:23:18.885Z,21.60
2022-12-04T07:25:46.804Z,21.60
2022-12-04T07:28:14.600Z,21.60
2022-12-04T07:30:42.397Z,21.60
2022-12-04T07:33:10.200Z,21.60
2022-12-04T07:35:37.933Z,21.60
2022-12-04T07:38:07.020Z,21.60
2022-12-04T07:40:34.753Z,21.60
2022-12-04T07:43:02.467Z,21.60
2022-12-04T07:45:30.283Z,21.50
2022-12-04T07:47:58.042Z,21.50
2022-12-04T07:50:25.765Z,21.50
2022-12-04T07:52:53.467Z,21.50
2022-12-04T07:55:23.362Z,21.50
2022-12-04T07:57:51.343Z,21.50
2022-12-04T08:00:20.199Z,21.50
2022-12-04T08:02:47.895Z,21.60
2022-12-04T08:05:15.762Z,21.60
2022-12-04T08:07:43.681Z,21.60
2022-12-04T08:10:12.052Z,21.60
2022-12-04T08:12:41.133Z,21.60
2022-12-04T08:15:10.204Z,21.60
2022-12-04T08:17:37.948Z,21.70
2022-12-04T08:20:06.980Z,21.70
2022-12-04T08:22:34.722Z,21.70
2022-12-04T08:25:02.468Z,21.60
2022-12-04T08:27:30.240Z,21.60
2022-12-04T08:29:59.320Z,21.60
2022-12-04T08:32:27.136Z,21.60
2022-12-04T08:34:56.029Z,21.60
2022-12-04T08:37:23.903Z,21.50
2022-12-04T08:39:51.642Z,21.50
2022-12-04T08:42:19.398Z,21.50
2022-12-04T08:44:47.133Z,21.50
2022-12-04T08:47:16.283Z,21.50
2022-12-04T08:49:44.020Z,21.50
2022-12-04T08:52:11.859Z,21.50
2022-12-04T08:54:39.669Z,21.50
2022-12-04T08:57:07.862Z,21.50
2022-12-04T08:59:35.603Z,21.50
2022-12-04T09:02:03.390Z,21.50
2022-12-04T09:04:32.611Z,21.50
2022-12-04T09:07:00.408Z,21.60
2022-12-04T09:09:28.156Z,21.60
2022-12-04T09:11:56.100Z,21.60
2022-12-04T09:14:25.898Z,21.60
2022-12-04T09:16:54.163Z,21.60
2022-12-04T09:19:22.192Z,21.70
2022-12-04T09:21:51.285Z,21.70
2022-12-04T09:24:19.020Z,21.70
2022-12-04T09:26:46.754Z,21.70
2022-12-04T09:29:14.462Z,21.70
2022-12-04T09:31:42.259Z,21.70
2022-12-04T09:34:10.033Z,21.80
2022-12-04T09:36:38.672Z,21.80
2022-12-04T09:39:07.728Z,21.80
2022-12-04T09:41:53.599Z,21.80
2022-12-04T09:44:25.384Z,21.80
2022-12-04T09:46:58.928Z,21.90
2022-12-04T09:49:30.343Z,21.90
2022-12-04T09:52:03.181Z,21.90
2022-12-04T09:54:38.997Z,21.90
2022-12-04T09:57:15.918Z,21.90
2022-12-04T09:59:45.194Z,21.90
2022-12-04T10:02:29.042Z,21.90
2022-12-04T10:04:57.507Z,21.90
2022-12-04T10:07:32.453Z,21.90
2022-12-04T10:10:06.534Z,21.90
2022-12-04T10:12:42.794Z,21.90
2022-12-04T10:15:24.670Z,21.90
2022-12-04T10:18:13.796Z,21.90
2022-12-04T10:21:16.935Z,21.90
2022-12-04T10:23:56.088Z,21.90
2022-12-04T10:26:29.456Z,21.90
2022-12-04T10:29:00.335Z,21.90
2022-12-04T10:31:30.461Z,21.90
2022-12-04T10:34:03.756Z,21.90
2022-12-04T10:36:33.962Z,21.90
2022-12-04T10:39:06.637Z,21.90
2022-12-04T10:41:44.099Z,21.90
2022-12-04T10:44:15.013Z,21.90
2022-12-04T10:46:46.294Z,21.90
2022-12-04T10:49:18.515Z,21.90
2022-12-04T10:51:47.405Z,21.90
2022-12-04T10:54:22.451Z,21.90
2022-12-04T10:56:57.900Z,21.90
2022-12-04T10:59:26.399Z,21.90
2022-12-04T11:02:06.360Z,21.90
2022-12-04T11:04:36.163Z,21.80
2022-12-04T11:07:06.199Z,21.80
2022-12-04T11:09:34.226Z,21.80
2022-12-04T11:12:17.696Z,21.80
2022-12-04T11:14:47.126Z,21.80
2022-12-04T11:17:19.825Z,21.80
2022-12-04T11:19:47.743Z,21.80
2022-12-04T11:22:17.477Z,21.90
2022-12-04T11:24:52.311Z,21.90
2022-12-04T11:27:27.028Z,21.90
2022-12-04T11:29:56.253Z,21.90
2022-12-04T11:32:26.495Z,21.90
2022-12-04T11:34:58.812Z,21.90
2022-12-04T11:37:28.405Z,21.90
2022-12-04T11:39:56.815Z,22.00
2022-12-04T11:42:27.676Z,22.00
2022-12-04T11:44:57.412Z,22.00
2022-12-04T11:47:27.814Z,22.00
2022-12-04T11:50:03.414Z,22.00
2022-12-04T11:52:46.237Z,22.10
2022-12-04T11:55:25.285Z,22.10
2022-12-04T11:58:30.140Z,22.20
2022-12-04T12:01:11.497Z,22.20
2022-12-04T12:03:44.666Z,22.20
2022-12-04T12:06:30.679Z,22.30
2022-12-04T12:09:09.477Z,22.30
2022-12-04T12:11:41.996Z,22.30
2022-12-04T12:14:19.857Z,22.20
2022-12-04T12:16:57.977Z,22.20
2022-12-04T12:19:40.759Z,22.20
2022-12-04T12:22:21.621Z,22.20
2022-12-04T12:24:59.983Z,22.20
2022-12-04T12:27:45.942Z,22.20
2022-12-04T12:30:19.040Z,22.00
2022-12-04T12:33:00.608Z,21.80
2022-12-04T12:35:33.296Z,21.60
2022-12-04T12:38:03.390Z,21.50
2022-12-04T12:40:34.927Z,21.50
2022-12-04T12:43:07.641Z,21.50
2022-12-04T12:45:45.535Z,21.50
2022-12-04T12:48:27.702Z,21.50
2022-12-04T12:51:28.518Z,21.50
2022-12-04T12:53:53.495Z,21.50
2022-12-04T12:56:42.230Z,21.50
2022-12-04T12:59:18.920Z,21.60
2022-12-04T13:01:58.749Z,21.60
2022-12-04T13:04:34.713Z,21.60
2022-12-04T13:07:12.030Z,21.60
2022-12-04T13:09:45.646Z,21.60
2022-12-04T13:12:16.490Z,21.60
2022-12-04T13:14:48.882Z,21.60
2022-12-04T13:17:22.230Z,21.60
2022-12-04T13:19:53.923Z,21.60
2022-12-04T13:22:29.983Z,21.60
2022-12-04T13:25:19.678Z,21.60
2022-12-04T13:27:58.712Z,21.60
2022-12-04T13:30:32.070Z,21.60
2022-12-04T13:33:23.120Z,21.60
2022-12-04T13:36:12.862Z,21.60
2022-12-04T13:38:57.830Z,21.60
2022-12-04T13:41:28.532Z,21.60
2022-12-04T13:43:57.423Z,21.60
2022-12-04T13:46:34.068Z,21.60
2022-12-04T13:49:26.271Z,21.60
2022-12-04T13:51:55.115Z,21.60
2022-12-04T13:54:29.226Z,21.60
2022-12-04T13:56:59.183Z,21.60
2022-12-04T13:59:38.481Z,21.70
2022-12-04T14:02:23.390Z,21.70
2022-12-04T14:04:58.488Z,21.70
2022-12-04T14:07:30.977Z,21.70
2022-12-04T14:10:01.799Z,21.70
2022-12-04T14:12:32.487Z,21.70
2022-12-04T14:15:02.797Z,21.70
2022-12-04T14:17:33.201Z,21.70
2022-12-04T14:20:08.062Z,21.70
2022-12-04T14:22:44.903Z,21.80
2022-12-04T14:25:36.446Z,21.80
2022-12-04T14:28:23.880Z,21.80
2022-12-04T14:31:04.144Z,21.80
2022-12-04T14:33:34.674Z,21.80
2022-12-04T14:36:07.953Z,21.80
2022-12-04T14:38:36.365Z,21.80
2022-12-04T14:41:05.529Z,21.80
2022-12-04T14:43:40.066Z,21.80
2022-12-04T14:46:14.596Z,21.80
2022-12-04T14:48:51.024Z,21.80
2022-12-04T14:51:25.841Z,21.80
2022-12-04T14:54:03.889Z,21.80
2022-12-04T14:56:43.677Z,21.80
2022-12-04T14:59:17.690Z,21.80
2022-12-04T15:01:47.172Z,21.80
2022-12-04T15:04:22.987Z,21.80
2022-12-04T15:06:58.326Z,21.80
2022-12-04T15:09:46.418Z,21.80
2022-12-04T15:12:36.873Z,21.80
2022-12-04T15:15:14.462Z,21.70
2022-12-04T15:17:42.306Z,21.70
2022-12-04T15:20:12.770Z,21.80
2022-12-04T15:22:41.961Z,21.70
2022-12-04T15:25:17.554Z,21.70
2022-12-04T15:27:46.093Z,21.70
2022-12-04T15:30:19.363Z,21.70
2022-12-04T15:32:50.212Z,21.70
2022-12-04T15:35:24.424Z,21.70
2022-12-04T15:37:54.281Z,21.70
2022-12-04T15:40:24.979Z,21.70
2022-12-04T15:42:52.896Z,21.70
2022-12-04T15:45:34.691Z,21.70
2022-12-04T15:48:02.650Z,21.70
2022-12-04T15:50:31.094Z,21.70
2022-12-04T15:53:07.353Z,21.70
2022-12-04T15:55:40.341Z,21.80
2022-12-04T15:58:19.095Z,21.80
2022-12-04T16:00:46.877Z,21.80
2022-12-04T16:03:25.421Z,21.80
2022-12-04T16:06:04.812Z,21.80
2022-12-04T16:08:36.516Z,21.80
2022-12-04T16:11:07.307Z,21.80
2022-12-04T16:13:37.141Z,21.80
2022-12-04T16:16:11.255Z,21.80
2022-12-04T16:18:39.837Z,21.80
2022-12-04T16:21:11.448Z,21.80
2022-12-04T16:23:40.518Z,21.80
2022-12-04T16:26:12.302Z,21.80
2022-12-04T16:28:40.180Z,21.80
2022-12-04T16:31:08.803Z,21.80
2022-12-04T16:33:36.579Z,21.80
2022-12-04T16:36:05.105Z,21.80
2022-12-04T16:38:32.916Z,21.80
2022-12-04T16:41:02.040Z,21.80
2022-12-04T16:43:29.808Z,21.80
2022-12-04T16:45:59.592Z,21.80
2022-12-04T16:48:29.508Z,21.80
2022-12-04T16:50:57.330Z,21.80
2022-12-04T16:53:25.075Z,21.80
2022-12-04T16:55:53.773Z,21.80
2022-12-04T16:58:22.996Z,21.80
2022-12-04T17:00:54.595Z,21.80
2022-12-04T17:03:26.697Z,21.80
2022-12-04T17:05:54.771Z,21.80
2022-12-04T17:08:22.925Z,21.80
2022-12-04T17:10:51.000Z,21.80
2022-12-04T17:13:19.371Z,21.80
2022-12-04T17:15:48.952Z,21.80
2022-12-04T17:18:21.031Z,21.80
2022-12-04T17:20:49.390Z,21.80
2022-12-04T17:23:17.380Z,21.70
2022-12-04T17:25:45.085Z,21.70
2022-12-04T17:28:12.820Z,21.70
2022-12-04T17:30:40.591Z,21.70
2022-12-04T17:33:09.669Z,21.70
2022-12-04T17:35:37.412Z,21.70
2022-12-04T17:38:06.397Z,21.70
2022-12-04T17:40:34.529Z,21.70
2022-12-04T17:43:02.488Z,21.70
2022-12-04T17:45:30.249Z,21.70
2022-12-04T17:47:58.022Z,21.70
2022-12-04T17:50:27.127Z,21.70
2022-12-04T17:52:54.851Z,21.70
2022-12-04T17:55:22.759Z,21.70
2022-12-04T17:57:50.508Z,21.70
2022-12-04T18:00:18.633Z,21.70
2022-12-04T18:02:51.556Z,21.70
2022-12-04T18:05:20.991Z,21.70
2022-12-04T18:07:50.166Z,21.70
2022-12-04T18:10:18.134Z,21.70
2022-12-04T18:12:45.896Z,21.70
2022-12-04T18:15:13.663Z,21.70
2022-12-04T18:17:41.387Z,21.70
2022-12-04T18:20:10.378Z,21.60
2022-12-04T18:22:38.581Z,21.60
2022-12-04T18:25:08.973Z,21.60
2022-12-04T18:27:41.539Z,21.60
2022-12-04T18:30:10.512Z,21.70
2022-12-04T18:32:38.284Z,21.70
2022-12-04T18:35:06.660Z,21.70
2022-12-04T18:37:34.436Z,21.70
2022-12-04T18:40:06.358Z,21.70
2022-12-04T18:42:36.052Z,21.70
2022-12-04T18:45:03.908Z,21.70
2022-12-04T18:47:31.639Z,21.70
2022-12-04T18:49:59.950Z,21.70
2022-12-04T18:52:27.991Z,21.70
2022-12-04T18:54:55.744Z,21.70
2022-12-04T18:57:23.528Z,21.80
2022-12-04T18:59:53.153Z,21.80
2022-12-04T19:02:21.087Z,21.80
2022-12-04T19:04:48.858Z,21.80
2022-12-04T19:07:18.553Z,21.80
2022-12-04T19:12:34.103Z,21.80
2022-12-04T19:15:03.900Z,21.80
2022-12-04T19:17:31.677Z,21.80
2022-12-04T19:19:59.602Z,21.80
2022-12-04T19:22:27.429Z,21.80
2022-12-04T19:24:55.148Z,21.80
2022-12-04T19:27:22.976Z,21.80
2022-12-04T19:29:50.711Z,21.80
2022-12-04T19:32:21.305Z,21.80
2022-12-04T19:34:49.162Z,21.80
2022-12-04T19:37:17.220Z,21.80
2022-12-04T19:39:45.106Z,21.80
2022-12-04T19:42:12.863Z,21.80
2022-12-04T19:44:48.234Z,21.80
2022-12-04T19:47:19.919Z,21.80
2022-12-04T19:49:47.727Z,21.80
2022-12-04T19:52:15.944Z,21.80
2022-12-04T19:54:43.769Z,21.80
2022-12-04T19:57:11.573Z,21.80
2022-12-04T19:59:44.529Z,21.70
2022-12-04T20:02:14.839Z,21.80
2022-12-04T20:04:44.198Z,21.70
2022-12-04T20:07:12.084Z,21.70
2022-12-04T20:09:39.864Z,21.70
2022-12-04T20:12:08.208Z,21.70
2022-12-04T20:14:35.998Z,21.70
2022-12-04T20:17:04.993Z,21.70
2022-12-04T20:19:33.132Z,21.70
2022-12-04T20:22:02.351Z,21.70
2022-12-04T20:24:30.229Z,21.70
2022-12-04T20:26:58.052Z,21.70
2022-12-04T20:29:25.821Z,21.70
2022-12-04T20:31:53.631Z,21.70
2022-12-04T20:34:21.495Z,21.70
2022-12-04T20:36:50.368Z,21.70
2022-12-04T20:39:20.788Z,21.70
2022-12-04T20:41:48.638Z,21.70
2022-12-04T20:44:18.662Z,21.70
2022-12-04T20:46:46.858Z,21.70
2022-12-04T20:49:21.106Z,21.70
2022-12-04T20:51:49.626Z,21.70
2022-12-04T20:54:20.983Z,21.70
2022-12-04T20:56:49.902Z,21.70
2022-12-04T20:59:19.900Z,21.70
2022-12-04T21:01:48.854Z,21.70
2022-12-04T21:04:17.674Z,21.70
2022-12-04T21:06:46.470Z,21.70
2022-12-04T21:09:15.978Z,21.70
2022-12-04T21:11:46.939Z,21.70
2022-12-04T21:14:35.189Z,21.70
2022-12-04T21:17:03.614Z,21.70
2022-12-04T21:19:32.045Z,21.60
2022-12-04T21:21:59.824Z,21.70
2022-12-04T21:24:28.306Z,21.60
2022-12-04T21:26:57.427Z,21.60
2022-12-04T21:29:25.190Z,21.60
2022-12-04T21:31:52.922Z,21.60
2022-12-04T21:34:20.735Z,21.60
2022-12-04T21:36:48.505Z,21.60
2022-12-04T21:39:16.946Z,21.60
2022-12-04T21:42:02.376Z,21.70
2022-12-04T21:44:31.741Z,21.60
2022-12-04T21:46:59.604Z,21.60
2022-12-04T21:49:27.768Z,21.60
2022-12-04T21:51:57.657Z,21.60
2022-12-04T21:54:26.115Z,21.60
2022-12-04T21:56:53.898Z,21.60
2022-12-04T21:59:21.729Z,21.60
2022-12-04T22:01:51.005Z,21.70
2022-12-04T22:04:19.080Z,21.60
2022-12-04T22:06:46.799Z,21.60
2022-12-04T22:09:14.864Z,21.60
2022-12-04T22:11:42.868Z,21.60
2022-12-04T22:14:12.357Z,21.60
2022-12-04T22:16:42.706Z,21.60
2022-12-04T22:19:12.880Z,21.60
2022-12-04T22:21:41.086Z,21.60
2022-12-04T22:24:10.325Z,21.60
2022-12-04T22:26:38.697Z,21.60
2022-12-04T22:29:33.790Z,21.60
2022-12-04T22:31:54.916Z,21.60
2022-12-04T22:34:24.092Z,21.60
2022-12-04T22:36:51.883Z,21.60
2022-12-04T22:39:19.626Z,21.60
2022-12-04T22:41:47.346Z,21.60
2022-12-04T22:44:15.125Z,21.60
2022-12-04T22:46:42.895Z,21.60
2022-12-04T22:49:10.657Z,21.60
2022-12-04T22:51:39.751Z,21.60
2022-12-04T22:54:08.032Z,21.60
2022-12-04T22:56:35.799Z,21.70
2022-12-04T22:59:03.595Z,21.60
2022-12-04T23:01:33.180Z,21.60
2022-12-04T23:04:02.026Z,21.60
2022-12-04T23:06:32.180Z,21.60
2022-12-04T23:09:02.881Z,21.60
2022-12-04T23:11:30.831Z,21.60
2022-12-04T23:14:00.289Z,21.60
2022-12-04T23:16:29.926Z,21.60
2022-12-04T23:18:58.527Z,21.60
2022-12-04T23:21:27.233Z,21.60
2022-12-04T23:23:55.972Z,21.60
2022-12-04T23:26:30.559Z,21.60
2022-12-04T23:28:58.738Z,21.60
2022-12-04T23:31:26.837Z,21.60
2022-12-04T23:33:54.860Z,21.60
2022-12-04T23:36:22.844Z,21.60
2022-12-04T23:38:50.635Z,21.60
2022-12-04T23:41:20.482Z,21.60
2022-12-04T23:43:50.927Z,21.70
2022-12-04T23:46:22.460Z,21.60
2022-12-04T23:48:50.662Z,21.60
2022-12-04T23:51:19.852Z,21.60
2022-12-04T23:53:48.399Z,21.60
2022-12-04T23:56:18.860Z,21.60
2022-12-04T23:58:50.087Z,21.60
